Time;durP1;ratioP1;P1;durP2;ratioP2;P2;SDS_P1;SDS_P2;PMS_P1;PMS_P2;Temp;Humidity;BMP_temperature;BMP_pressure;BME280_temperature;BME280_humidity;BME280_pressure;Samples;Min_cycle;Max_cycle;Signal;HPM_P1;HPM_P2
2023/10/24 00:00:33;;;;;;;11.07;8.35;;;10.00;99.90;;;;;;5077097;28;20411;-71
2023/10/24 00:03:00;;;;;;;11.73;7.78;;;10.10;99.90;;;;;;5077431;28;20044;-71
2023/10/24 00:05:28;;;;;;;14.02;8.88;;;10.00;99.90;;;;;;5076525;28;20059;-70
2023/10/24 00:07:55;;;;;;;14.57;9.35;;;10.00;99.90;;;;;;5077471;28;20816;-71
2023/10/24 00:10:22;;;;;;;16.60;8.90;;;10.00;99.90;;;;;;5077164;28;20458;-70
2023/10/24 00:12:49;;;;;;;17.85;9.95;;;10.00;99.90;;;;;;5076772;28;20438;-69
2023/10/24 00:15:16;;;;;;;17.23;9.18;;;10.00;99.90;;;;;;5077036;28;20036;-69
2023/10/24 00:17:44;;;;;;;15.80;9.32;;;10.10;99.90;;;;;;5076686;28;20055;-70
2023/10/24 00:20:12;;;;;;;12.27;8.40;;;10.00;99.90;;;;;;5072601;28;20569;-70
2023/10/24 00:22:39;;;;;;;15.73;9.05;;;10.00;99.90;;;;;;5076678;28;20043;-71
2023/10/24 00:25:07;;;;;;;13.90;8.20;;;10.00;99.90;;;;;;5075824;28;20085;-70
2023/10/24 00:27:34;;;;;;;14.68;9.02;;;10.00;99.90;;;;;;5076989;28;20542;-71
2023/10/24 00:30:01;;;;;;;12.40;7.82;;;10.00;99.90;;;;;;5076789;28;20374;-70
2023/10/24 00:32:28;;;;;;;11.88;8.30;;;10.00;99.90;;;;;;5076057;28;20138;-70
2023/10/24 00:34:56;;;;;;;15.18;9.40;;;10.10;99.90;;;;;;5076768;28;20484;-69
2023/10/24 00:37:23;;;;;;;12.52;8.35;;;10.10;99.90;;;;;;5090907;28;20089;-70
2023/10/24 00:39:50;;;;;;;13.50;8.77;;;10.10;99.90;;;;;;5093976;28;20121;-70
2023/10/24 00:42:16;;;;;;;12.25;8.98;;;10.10;99.90;;;;;;5076787;28;20059;-70
2023/10/24 00:44:43;;;;;;;13.57;9.27;;;10.10;99.90;;;;;;5076169;28;20048;-72
2023/10/24 00:47:10;;;;;;;12.15;8.32;;;10.10;99.90;;;;;;5076140;28;20048;-71
2023/10/24 00:49:38;;;;;;;13.65;8.75;;;10.10;99.90;;;;;;5076448;28;20063;-72
2023/10/24 00:52:06;;;;;;;14.68;9.18;;;10.10;99.90;;;;;;5076394;28;20047;-71
2023/10/24 00:54:35;;;;;;;13.48;8.75;;;10.10;99.90;;;;;;5073842;28;20059;-71
2023/10/24 00:57:04;;;;;;;15.40;9.63;;;10.10;99.90;;;;;;5076397;28;20071;-71
2023/10/24 00:59:31;;;;;;;16.95;9.65;;;10.10;99.90;;;;;;5076342;28;20048;-71
2023/10/24 01:01:59;;;;;;;15.70;9.50;;;10.10;99.90;;;;;;5071022;28;20055;-71
2023/10/24 01:04:26;;;;;;;12.02;8.30;;;10.10;99.90;;;;;;5075951;28;20076;-71
2023/10/24 01:06:53;;;;;;;14.63;9.25;;;10.00;99.90;;;;;;5075867;28;20124;-71
2023/10/24 01:09:21;;;;;;;14.07;9.07;;;10.00;99.90;;;;;;5076030;28;20478;-72
2023/10/24 01:11:49;;;;;;;16.58;9.65;;;10.00;99.90;;;;;;5075992;28;20044;-71
2023/10/24 01:14:16;;;;;;;17.52;9.63;;;10.00;99.90;;;;;;5075331;28;20164;-71
2023/10/24 01:16:44;;;;;;;16.02;10.27;;;10.00;99.90;;;;;;5076058;28;20056;-71
2023/10/24 01:19:11;;;;;;;14.43;9.40;;;10.00;99.90;;;;;;5075976;28;20048;-71
2023/10/24 01:21:43;;;;;;;15.48;9.30;;;9.90;99.90;;;;;;5075382;28;20449;-71
2023/10/24 01:24:10;;;;;;;16.00;10.15;;;9.90;99.90;;;;;;5075748;28;20106;-71
2023/10/24 01:26:39;;;;;;;15.40;10.43;;;10.10;99.90;;;;;;5075777;28;20048;-71
2023/10/24 01:29:06;;;;;;;16.02;9.95;;;10.00;99.90;;;;;;5075080;28;20089;-71
2023/10/24 01:31:33;;;;;;;16.90;10.07;;;9.90;99.90;;;;;;5075681;28;20052;-69
2023/10/24 01:34:00;;;;;;;18.20;9.98;;;9.90;99.90;;;;;;5075250;28;20094;-70
2023/10/24 01:36:27;;;;;;;17.02;10.00;;;9.90;99.90;;;;;;5074131;28;20048;-71
2023/10/24 01:38:57;;;;;;;17.50;10.00;;;10.00;99.90;;;;;;5075478;28;20097;-70
2023/10/24 01:41:24;;;;;;;14.70;10.50;;;10.00;99.90;;;;;;5075527;28;20052;-71
2023/10/24 01:43:51;;;;;;;17.35;9.57;;;10.00;99.90;;;;;;5070619;28;20048;-71
2023/10/24 01:46:17;;;;;;;14.93;9.57;;;10.00;99.90;;;;;;5075238;28;20044;-71
2023/10/24 01:48:44;;;;;;;17.90;11.25;;;10.00;99.90;;;;;;5075429;28;20060;-71
2023/10/24 01:51:11;;;;;;;15.90;9.57;;;10.00;99.90;;;;;;5074662;28;20056;-71
2023/10/24 01:53:38;;;;;;;14.48;9.38;;;10.00;99.90;;;;;;5075255;28;20055;-70
2023/10/24 01:56:06;;;;;;;16.48;11.10;;;10.00;99.90;;;;;;5075035;28;20048;-71
2023/10/24 01:58:33;;;;;;;16.90;10.93;;;10.00;99.90;;;;;;5075431;28;20063;-71
2023/10/24 02:01:00;;;;;;;18.15;10.93;;;10.00;99.90;;;;;;5070876;28;20106;-71
2023/10/24 02:03:27;;;;;;;17.10;11.20;;;10.00;99.90;;;;;;5070885;28;20044;-71
2023/10/24 02:05:54;;;;;;;15.98;10.60;;;10.00;99.90;;;;;;5071566;28;20496;-72
2023/10/24 02:08:21;;;;;;;17.27;11.57;;;10.00;99.90;;;;;;5071690;28;20052;-71
2023/10/24 02:10:47;;;;;;;16.95;11.27;;;10.00;99.90;;;;;;5071137;28;20569;-69
2023/10/24 02:13:16;;;;;;;16.35;10.80;;;10.00;99.90;;;;;;5071471;28;20500;-71
2023/10/24 02:15:43;;;;;;;18.90;11.63;;;10.00;99.90;;;;;;5066935;28;20048;-72
2023/10/24 02:18:09;;;;;;;15.80;10.57;;;10.00;99.90;;;;;;5070698;28;20052;-71
2023/10/24 02:20:38;;;;;;;16.60;11.38;;;10.00;99.90;;;;;;5067179;28;20432;-72
2023/10/24 02:23:05;;;;;;;16.20;10.45;;;10.00;99.90;;;;;;5072631;28;20048;-71
2023/10/24 02:25:36;;;;;;;20.55;11.68;;;10.00;99.90;;;;;;5070472;28;20501;-71
2023/10/24 02:28:03;;;;;;;18.70;10.63;;;10.00;99.90;;;;;;5067398;28;20558;-71
2023/10/24 02:30:31;;;;;;;18.27;10.57;;;10.00;99.90;;;;;;5071192;28;20056;-70
2023/10/24 02:33:01;;;;;;;16.75;10.48;;;10.00;99.90;;;;;;5070568;28;20098;-71
2023/10/24 02:35:28;;;;;;;17.67;10.30;;;10.10;99.90;;;;;;5070889;28;20508;-71
2023/10/24 02:37:55;;;;;;;15.82;10.65;;;10.10;99.90;;;;;;5071317;28;20048;-71
2023/10/24 02:40:22;;;;;;;17.85;10.80;;;10.20;99.90;;;;;;5071592;28;20129;-71
2023/10/24 02:42:49;;;;;;;16.50;9.80;;;10.10;99.90;;;;;;5071291;28;20493;-70
2023/10/24 02:45:16;;;;;;;16.13;10.45;;;10.10;99.90;;;;;;5070725;28;20403;-70
2023/10/24 02:47:44;;;;;;;18.67;11.27;;;10.10;99.90;;;;;;5070266;28;20143;-70
2023/10/24 02:50:11;;;;;;;15.55;11.65;;;10.20;99.90;;;;;;5068211;28;20044;-71
2023/10/24 02:52:38;;;;;;;14.77;10.10;;;10.20;99.90;;;;;;5070659;28;20098;-71
2023/10/24 02:55:06;;;;;;;15.95;9.98;;;10.20;99.90;;;;;;5071300;28;20052;-70
2023/10/24 02:57:33;;;;;;;16.73;9.68;;;10.20;99.90;;;;;;5071153;28;20443;-70
2023/10/24 03:00:00;;;;;;;18.70;10.77;;;10.30;99.90;;;;;;5073728;28;20052;-70
2023/10/24 03:02:27;;;;;;;15.38;9.45;;;10.30;99.90;;;;;;5087836;28;20044;-70
2023/10/24 03:04:55;;;;;;;15.10;9.77;;;10.30;99.90;;;;;;5074095;28;20430;-70
2023/10/24 03:07:23;;;;;;;15.05;9.70;;;10.30;99.90;;;;;;5091661;28;20058;-71
2023/10/24 03:09:50;;;;;;;17.40;10.00;;;10.30;99.90;;;;;;5074149;28;20059;-71
2023/10/24 03:12:17;;;;;;;12.57;9.30;;;10.30;99.90;;;;;;5074163;28;20048;-72
2023/10/24 03:14:44;;;;;;;11.85;9.25;;;10.40;99.90;;;;;;5073669;28;20048;-71
2023/10/24 03:17:11;;;;;;;16.13;10.40;;;10.40;99.90;;;;;;5073786;28;20040;-71
2023/10/24 03:19:37;;;;;;;16.05;10.07;;;10.40;99.90;;;;;;5091996;28;20044;-71
2023/10/24 03:22:06;;;;;;;14.77;9.25;;;10.40;99.90;;;;;;5091407;28;20047;-71
2023/10/24 03:24:33;;;;;;;13.65;9.02;;;10.40;99.90;;;;;;5074009;28;20052;-71
2023/10/24 03:26:59;;;;;;;14.35;9.82;;;10.40;99.90;;;;;;5073936;28;20082;-70
2023/10/24 03:29:26;;;;;;;13.88;10.13;;;10.50;99.90;;;;;;5073634;28;20109;-71
2023/10/24 03:31:53;;;;;;;12.65;9.55;;;10.50;99.90;;;;;;5073815;28;20047;-71
2023/10/24 03:34:20;;;;;;;13.18;9.18;;;10.50;99.90;;;;;;5074176;28;20476;-71
2023/10/24 03:36:47;;;;;;;12.10;8.75;;;10.50;99.90;;;;;;5073319;28;20434;-71
2023/10/24 03:39:15;;;;;;;15.63;9.35;;;10.50;99.90;;;;;;5073793;28;20052;-70
2023/10/24 03:41:42;;;;;;;11.52;8.63;;;10.60;99.90;;;;;;5091136;28;20044;-71
2023/10/24 03:44:09;;;;;;;14.05;9.77;;;10.60;99.90;;;;;;5073723;28;20523;-71
2023/10/24 03:46:36;;;;;;;13.90;8.40;;;10.60;99.90;;;;;;5071760;28;20450;-69
2023/10/24 03:49:03;;;;;;;14.70;10.15;;;10.60;99.90;;;;;;5070846;28;20387;-70
2023/10/24 03:51:30;;;;;;;13.90;9.68;;;10.60;99.90;;;;;;5065938;28;20055;-71
2023/10/24 03:53:57;;;;;;;12.77;9.60;;;10.70;99.90;;;;;;5071388;28;20092;-70
2023/10/24 03:56:26;;;;;;;14.20;9.60;;;10.60;99.90;;;;;;5068189;28;20537;-69
2023/10/24 03:58:53;;;;;;;12.03;9.50;;;10.60;99.90;;;;;;5069746;28;20094;-70
2023/10/24 04:01:20;;;;;;;14.88;10.35;;;10.70;99.90;;;;;;5088186;28;20044;-70
2023/10/24 04:03:47;;;;;;;13.82;9.15;;;10.70;99.90;;;;;;5073487;28;20056;-71
2023/10/24 04:06:15;;;;;;;15.25;9.45;;;10.70;99.90;;;;;;5071723;28;20101;-70
2023/10/24 04:08:42;;;;;;;14.30;9.50;;;10.70;99.90;;;;;;5073859;28;20056;-70
2023/10/24 04:11:14;;;;;;;13.70;9.43;;;10.70;99.90;;;;;;5074957;28;20052;-71
2023/10/24 04:13:42;;;;;;;12.07;9.02;;;10.70;99.90;;;;;;5073451;28;20123;-71
2023/10/24 04:16:10;;;;;;;17.85;10.18;;;10.70;99.90;;;;;;5074531;28;20044;-70
2023/10/24 04:18:37;;;;;;;14.48;9.52;;;10.80;99.90;;;;;;5068260;28;20067;-70
2023/10/24 04:21:04;;;;;;;17.70;9.48;;;10.70;99.90;;;;;;5090892;28;20376;-70
2023/10/24 04:23:31;;;;;;;12.45;8.88;;;10.70;99.90;;;;;;5069358;28;20052;-70
2023/10/24 04:25:58;;;;;;;14.52;9.38;;;10.70;99.90;;;;;;5072332;28;20093;-70
2023/10/24 04:28:25;;;;;;;13.40;9.52;;;10.70;99.90;;;;;;5071656;28;20483;-71
2023/10/24 04:30:54;;;;;;;14.32;9.10;;;10.80;99.90;;;;;;5069960;28;20087;-70
2023/10/24 04:33:21;;;;;;;11.68;8.70;;;10.80;99.90;;;;;;5073778;28;20059;-72
2023/10/24 04:35:50;;;;;;;12.05;8.93;;;10.80;99.90;;;;;;5066392;28;20036;-72
2023/10/24 04:38:17;;;;;;;12.63;9.18;;;10.80;99.90;;;;;;5065405;28;20155;-72
2023/10/24 04:40:45;;;;;;;11.60;8.82;;;10.80;99.90;;;;;;5073974;28;20044;-72
2023/10/24 04:43:12;;;;;;;12.65;9.35;;;10.80;99.90;;;;;;5072679;28;20048;-71
2023/10/24 04:45:39;;;;;;;14.65;10.48;;;10.80;99.90;;;;;;5072764;28;20044;-70
2023/10/24 04:48:08;;;;;;;14.40;10.00;;;10.90;99.90;;;;;;5073153;28;20060;-69
2023/10/24 04:50:38;;;;;;;16.77;9.98;;;10.90;99.90;;;;;;5073781;28;20040;-69
2023/10/24 04:53:05;;;;;;;16.27;10.65;;;10.90;99.90;;;;;;5071873;28;20075;-70
2023/10/24 04:55:32;;;;;;;15.63;10.25;;;10.90;99.90;;;;;;5070817;28;20091;-70
2023/10/24 04:58:00;;;;;;;17.23;10.57;;;10.90;99.90;;;;;;5075035;28;20450;-69
2023/10/24 05:00:27;;;;;;;17.02;10.07;;;10.90;99.90;;;;;;5071110;28;20511;-69
2023/10/24 05:02:54;;;;;;;15.93;10.23;;;10.80;99.90;;;;;;5092777;28;20047;-68
2023/10/24 05:05:22;;;;;;;16.60;10.95;;;10.90;99.90;;;;;;5071494;28;20565;-68
2023/10/24 05:07:49;;;;;;;16.40;10.70;;;10.90;99.90;;;;;;5071783;28;20056;-67
2023/10/24 05:10:16;;;;;;;15.57;11.15;;;10.90;99.90;;;;;;5089681;28;20065;-70
2023/10/24 05:12:43;;;;;;;14.55;11.32;;;11.00;99.90;;;;;;5074533;28;20117;-68
2023/10/24 05:15:10;;;;;;;17.35;10.52;;;11.00;99.90;;;;;;5070324;28;20102;-69
2023/10/24 05:17:37;;;;;;;15.20;11.52;;;11.00;99.90;;;;;;5073689;28;20070;-68
2023/10/24 05:20:07;;;;;;;16.25;11.60;;;11.00;99.90;;;;;;5070310;28;20140;-68
2023/10/24 05:22:35;;;;;;;15.93;10.90;;;11.00;99.90;;;;;;5073600;28;20091;-68
2023/10/24 05:25:02;;;;;;;18.95;12.27;;;11.00;99.90;;;;;;5071797;28;20048;-68
2023/10/24 05:27:31;;;;;;;14.65;10.82;;;11.00;99.90;;;;;;5071823;28;20059;-69
2023/10/24 05:29:58;;;;;;;14.15;10.48;;;11.10;99.90;;;;;;5073309;28;20140;-68
2023/10/24 05:32:25;;;;;;;16.02;10.88;;;11.10;99.90;;;;;;5071583;28;20488;-67
2023/10/24 05:34:55;;;;;;;15.57;9.90;;;11.10;99.90;;;;;;5072258;28;20040;-67
2023/10/24 05:37:22;;;;;;;14.35;10.88;;;11.10;99.90;;;;;;5074390;28;20048;-69
2023/10/24 05:39:50;;;;;;;16.42;11.00;;;11.10;99.90;;;;;;5091156;28;20105;-68
2023/10/24 05:42:17;;;;;;;16.17;10.93;;;11.20;99.90;;;;;;5074448;28;20094;-68
2023/10/24 05:44:44;;;;;;;13.63;10.20;;;11.10;99.90;;;;;;5093118;28;20048;-68
2023/10/24 05:47:10;;;;;;;17.00;10.82;;;11.10;99.90;;;;;;5074885;28;20097;-69
2023/10/24 05:49:38;;;;;;;18.90;11.30;;;11.10;99.90;;;;;;5069915;28;20059;-69
2023/10/24 05:52:06;;;;;;;16.70;11.35;;;11.20;99.90;;;;;;5093153;28;20522;-69
2023/10/24 05:54:33;;;;;;;15.40;10.82;;;11.20;99.90;;;;;;5075232;28;20102;-68
2023/10/24 05:57:01;;;;;;;13.55;10.15;;;11.10;99.90;;;;;;5074581;28;20052;-68
2023/10/24 05:59:28;;;;;;;13.65;10.50;;;11.10;99.90;;;;;;5092991;28;20507;-68
2023/10/24 06:01:55;;;;;;;14.32;10.90;;;11.10;99.90;;;;;;5092785;28;20048;-67
2023/10/24 06:04:22;;;;;;;17.83;10.98;;;11.20;99.90;;;;;;5074443;28;20052;-68
2023/10/24 06:06:49;;;;;;;13.40;9.90;;;11.10;99.90;;;;;;5074687;28;20047;-67
2023/10/24 06:09:17;;;;;;;16.58;10.75;;;11.20;99.90;;;;;;5074724;28;20458;-68
2023/10/24 06:11:44;;;;;;;15.57;10.65;;;11.20;99.90;;;;;;5092157;28;20044;-69
2023/10/24 06:14:13;;;;;;;13.70;9.35;;;11.20;99.90;;;;;;5074615;28;20056;-68
2023/10/24 06:16:39;;;;;;;14.40;9.90;;;11.20;99.90;;;;;;5074236;28;20056;-68
2023/10/24 06:19:06;;;;;;;17.17;11.10;;;11.20;99.90;;;;;;5074536;28;20460;-68
2023/10/24 06:21:33;;;;;;;14.77;9.98;;;11.20;99.90;;;;;;5074196;28;20056;-68
2023/10/24 06:24:00;;;;;;;15.00;10.55;;;11.20;99.90;;;;;;5069719;28;20035;-68
2023/10/24 06:26:27;;;;;;;17.80;9.98;;;11.20;99.90;;;;;;5074004;28;20101;-69
2023/10/24 06:28:54;;;;;;;13.30;9.57;;;11.20;99.90;;;;;;5073968;28;20044;-67
2023/10/24 06:31:23;;;;;;;14.45;10.07;;;11.20;99.90;;;;;;5073857;28;20047;-68
2023/10/24 06:33:50;;;;;;;12.23;8.77;;;11.20;99.90;;;;;;5092698;28;20431;-68
2023/10/24 06:36:16;;;;;;;14.43;9.85;;;11.20;99.90;;;;;;5069900;28;20076;-68
2023/10/24 06:38:43;;;;;;;12.85;9.25;;;11.30;99.90;;;;;;5092114;28;20048;-69
2023/10/24 06:41:11;;;;;;;18.38;9.55;;;11.20;99.90;;;;;;5074280;28;20090;-69
2023/10/24 06:43:39;;;;;;;13.25;9.43;;;11.20;99.90;;;;;;5074397;28;20044;-69
2023/10/24 06:46:06;;;;;;;12.32;9.27;;;11.30;99.90;;;;;;5069566;28;20072;-68
2023/10/24 06:48:34;;;;;;;11.32;9.13;;;11.30;99.90;;;;;;5074176;28;20385;-67
2023/10/24 06:51:01;;;;;;;13.23;8.60;;;11.30;99.90;;;;;;5074301;28;20101;-69
2023/10/24 06:53:28;;;;;;;13.57;7.80;;;11.30;99.90;;;;;;5073270;28;20051;-68
2023/10/24 06:56:00;;;;;;;12.00;7.90;;;11.40;99.90;;;;;;5074270;28;20051;-68
2023/10/24 06:58:27;;;;;;;12.10;7.60;;;11.40;99.90;;;;;;5069994;28;20123;-68
2023/10/24 07:00:54;;;;;;;11.98;6.53;;;11.40;99.90;;;;;;5073435;28;20056;-67
2023/10/24 07:03:22;;;;;;;10.85;7.13;;;11.40;99.90;;;;;;5092295;28;20052;-69
2023/10/24 07:05:53;;;;;;;10.25;7.30;;;11.40;99.90;;;;;;5073331;28;20097;-67
2023/10/24 07:08:21;;;;;;;9.32;6.68;;;11.40;99.90;;;;;;5073991;28;20043;-68
2023/10/24 07:10:48;;;;;;;10.48;7.47;;;11.30;99.90;;;;;;5074231;28;20044;-68
2023/10/24 07:13:15;;;;;;;9.35;6.88;;;11.40;99.90;;;;;;5073432;28;20056;-69
2023/10/24 07:15:42;;;;;;;8.40;5.97;;;11.40;99.90;;;;;;5074115;28;20066;-69
2023/10/24 07:18:09;;;;;;;9.48;6.88;;;11.40;99.90;;;;;;5074015;28;20101;-69
2023/10/24 07:20:36;;;;;;;9.48;6.93;;;11.40;99.90;;;;;;5073140;28;20040;-68
2023/10/24 07:23:05;;;;;;;10.45;6.43;;;11.40;99.90;;;;;;5073663;28;20131;-68
2023/10/24 07:25:32;;;;;;;11.18;6.75;;;11.30;99.90;;;;;;5073572;28;20066;-69
2023/10/24 07:27:59;;;;;;;8.48;6.43;;;11.30;99.90;;;;;;5073190;28;20044;-69
2023/10/24 07:30:26;;;;;;;9.85;7.18;;;11.30;99.90;;;;;;5073682;28;21416;-69
2023/10/24 07:32:54;;;;;;;10.75;6.88;;;11.20;99.90;;;;;;5091885;28;20044;-68
2023/10/24 07:35:22;;;;;;;8.82;6.55;;;11.20;99.90;;;;;;5094641;28;20102;-68
2023/10/24 07:37:49;;;;;;;10.82;7.65;;;11.20;99.90;;;;;;5077821;28;20056;-68
2023/10/24 07:40:18;;;;;;;8.45;6.55;;;11.20;99.90;;;;;;5077639;28;20074;-68
2023/10/24 07:42:45;;;;;;;11.82;7.38;;;11.20;99.90;;;;;;5077243;28;20127;-68
2023/10/24 07:45:13;;;;;;;12.15;8.55;;;11.20;99.90;;;;;;5077531;28;20040;-68
2023/10/24 07:47:40;;;;;;;13.68;8.70;;;11.20;99.90;;;;;;5077289;28;20059;-68
2023/10/24 07:50:09;;;;;;;14.15;7.72;;;11.20;99.90;;;;;;5076974;28;20052;-68
2023/10/24 07:52:36;;;;;;;12.43;7.25;;;11.20;99.90;;;;;;5077524;28;20079;-68
2023/10/24 07:55:03;;;;;;;11.00;7.72;;;11.30;99.90;;;;;;5094903;28;20138;-68
2023/10/24 07:57:31;;;;;;;9.63;6.88;;;11.30;99.90;;;;;;5077366;28;20056;-69
2023/10/24 07:59:58;;;;;;;10.68;7.10;;;11.30;99.90;;;;;;5076939;28;20084;-69
2023/10/24 08:02:25;;;;;;;10.85;7.55;;;11.30;99.90;;;;;;5076507;28;20105;-69
2023/10/24 08:04:52;;;;;;;11.20;7.28;;;11.30;99.90;;;;;;5077009;28;20059;-67
2023/10/24 08:07:19;;;;;;;11.73;7.78;;;11.30;99.90;;;;;;5077186;28;20541;-68
2023/10/24 08:09:46;;;;;;;9.43;7.30;;;11.30;99.90;;;;;;5076543;28;20811;-68
2023/10/24 08:12:13;;;;;;;9.82;6.68;;;11.40;99.90;;;;;;5095282;28;20446;-68
2023/10/24 08:14:41;;;;;;;9.50;7.15;;;11.40;99.90;;;;;;5094884;28;20044;-68
2023/10/24 08:17:08;;;;;;;9.27;6.78;;;11.40;99.90;;;;;;5076536;28;20476;-67
2023/10/24 08:19:35;;;;;;;9.32;6.85;;;11.40;99.90;;;;;;5076939;28;20549;-68
2023/10/24 08:22:02;;;;;;;9.70;6.90;;;11.40;99.90;;;;;;5076904;28;20048;-67
2023/10/24 08:24:29;;;;;;;11.38;7.47;;;11.40;99.90;;;;;;5074327;28;20104;-68
2023/10/24 08:26:56;;;;;;;10.13;7.50;;;11.40;99.90;;;;;;5094691;28;20036;-69
2023/10/24 08:29:23;;;;;;;10.23;7.07;;;11.40;99.90;;;;;;5094703;28;20044;-69
2023/10/24 08:31:51;;;;;;;12.23;7.20;;;11.40;99.90;;;;;;5075840;28;20109;-68
2023/10/24 08:34:18;;;;;;;10.80;7.25;;;11.40;99.90;;;;;;5076639;28;20055;-69
2023/10/24 08:36:45;;;;;;;11.05;7.70;;;11.40;99.90;;;;;;5076670;28;20044;-68
2023/10/24 08:39:11;;;;;;;10.80;7.35;;;11.40;99.90;;;;;;5076098;28;20056;-69
2023/10/24 08:41:38;;;;;;;10.93;7.55;;;11.40;99.90;;;;;;5071911;28;20052;-68
2023/10/24 08:44:06;;;;;;;10.57;7.38;;;11.40;99.90;;;;;;5076443;28;20089;-68
2023/10/24 08:46:34;;;;;;;11.70;7.32;;;11.40;99.90;;;;;;5075523;28;20040;-68
2023/10/24 08:49:03;;;;;;;10.43;7.88;;;11.40;99.90;;;;;;5076371;28;20051;-68
2023/10/24 08:51:30;;;;;;;10.00;7.30;;;11.40;99.90;;;;;;5075631;28;20043;-69
2023/10/24 08:53:57;;;;;;;10.65;7.45;;;11.40;99.90;;;;;;5076453;28;20454;-68
2023/10/24 08:56:25;;;;;;;9.73;7.00;;;11.40;99.90;;;;;;5076000;28;20048;-69
2023/10/24 08:58:53;;;;;;;12.27;7.97;;;11.40;99.90;;;;;;5075472;28;20500;-69
2023/10/24 09:01:20;;;;;;;10.63;7.70;;;11.40;99.90;;;;;;5093966;28;20408;-68
2023/10/24 09:03:47;;;;;;;10.77;7.22;;;11.40;99.90;;;;;;5076366;28;20056;-69
2023/10/24 09:06:16;;;;;;;11.45;7.80;;;11.50;99.90;;;;;;5071181;28;20101;-69
2023/10/24 09:08:43;;;;;;;13.27;7.85;;;11.50;99.90;;;;;;5075863;28;20048;-68
2023/10/24 09:11:10;;;;;;;11.77;7.60;;;11.50;99.90;;;;;;5075849;28;20056;-68
2023/10/24 09:13:37;;;;;;;14.80;8.93;;;11.50;99.90;;;;;;5093378;28;20051;-68
2023/10/24 09:16:06;;;;;;;11.02;7.22;;;11.60;99.90;;;;;;5076096;28;20043;-69
2023/10/24 09:18:38;;;;;;;15.60;7.82;;;11.60;99.90;;;;;;5075895;28;20072;-68
2023/10/24 09:21:06;;;;;;;12.48;7.88;;;11.60;99.90;;;;;;5093521;28;20048;-68
2023/10/24 09:23:35;;;;;;;14.02;8.30;;;11.50;99.90;;;;;;5075685;28;20113;-68
2023/10/24 09:26:04;;;;;;;10.90;7.80;;;11.50;99.90;;;;;;5071341;28;20051;-68
2023/10/24 09:28:33;;;;;;;11.18;8.20;;;11.60;99.90;;;;;;5075198;28;20129;-68
2023/10/24 09:31:00;;;;;;;12.57;8.23;;;11.50;99.90;;;;;;5075700;28;20483;-69
2023/10/24 09:33:27;;;;;;;11.45;7.82;;;11.50;99.90;;;;;;5074820;28;20496;-69
2023/10/24 09:35:55;;;;;;;10.38;7.10;;;11.60;99.90;;;;;;5075588;28;20055;-69
2023/10/24 09:38:24;;;;;;;12.98;8.35;;;11.50;99.90;;;;;;5093438;28;20067;-69
2023/10/24 09:40:53;;;;;;;10.65;7.32;;;11.50;99.90;;;;;;5092780;28;20458;-69
2023/10/24 09:43:22;;;;;;;12.93;8.23;;;11.50;99.90;;;;;;5093253;28;20044;-69
2023/10/24 09:45:51;;;;;;;12.38;7.80;;;11.40;99.90;;;;;;5075099;28;20138;-69
2023/10/24 09:48:19;;;;;;;11.88;8.13;;;11.40;99.90;;;;;;5092842;28;20806;-68
2023/10/24 09:50:47;;;;;;;14.77;8.02;;;11.50;99.90;;;;;;5075089;28;20044;-68
2023/10/24 09:53:14;;;;;;;10.63;7.72;;;11.50;99.90;;;;;;5075058;28;20557;-69
2023/10/24 09:55:48;;;;;;;17.23;8.15;;;11.50;99.90;;;;;;5092399;28;20044;-69
2023/10/24 09:58:17;;;;;;;14.25;8.40;;;11.50;99.90;;;;;;5072573;28;20464;-69
2023/10/24 10:00:45;;;;;;;12.05;8.20;;;11.40;99.90;;;;;;5092870;28;20094;-70
2023/10/24 10:03:13;;;;;;;11.88;8.48;;;11.50;99.90;;;;;;5074359;28;20420;-70
2023/10/24 10:05:41;;;;;;;11.65;8.38;;;11.50;99.90;;;;;;5074885;28;20059;-69
2023/10/24 10:08:09;;;;;;;10.38;7.55;;;11.50;99.90;;;;;;5074955;28;20048;-69
2023/10/24 10:10:38;;;;;;;11.85;7.82;;;11.40;99.90;;;;;;5092262;28;20046;-68
2023/10/24 10:13:09;;;;;;;12.52;7.78;;;11.50;99.90;;;;;;5088656;28;20446;-69
2023/10/24 10:15:57;;;;;;;10.05;7.28;;;11.50;99.90;;;;;;5074134;28;20048;-69
2023/10/24 10:18:40;;;;;;;12.30;7.25;;;11.50;99.90;;;;;;5074936;28;20480;-69
2023/10/24 10:21:17;;;;;;;11.82;7.90;;;11.50;99.90;;;;;;5074411;28;20048;-69
2023/10/24 10:24:02;;;;;;;12.00;8.43;;;11.50;99.90;;;;;;5088531;28;20052;-68
2023/10/24 10:26:45;;;;;;;10.77;7.22;;;11.50;99.90;;;;;;5073704;28;20049;-69
2023/10/24 10:29:20;;;;;;;13.65;8.50;;;11.50;99.90;;;;;;5071789;28;20047;-69
2023/10/24 10:32:10;;;;;;;11.70;7.78;;;11.50;99.90;;;;;;5071035;28;20048;-69
2023/10/24 10:34:38;;;;;;;11.13;7.72;;;11.50;99.90;;;;;;5059393;28;20052;-69
2023/10/24 10:37:05;;;;;;;11.77;7.70;;;11.50;99.90;;;;;;5080409;28;20040;-69
2023/10/24 10:39:32;;;;;;;14.07;8.07;;;11.50;99.90;;;;;;5097877;28;20032;-67
2023/10/24 10:41:59;;;;;;;11.23;7.50;;;11.50;99.90;;;;;;5097649;28;20044;-68
2023/10/24 10:44:40;;;;;;;11.65;8.05;;;11.50;99.90;;;;;;5097114;28;20039;-69
2023/10/24 10:47:09;;;;;;;13.50;7.63;;;11.50;99.90;;;;;;5098700;28;20054;-69
2023/10/24 10:49:43;;;;;;;11.18;7.75;;;11.50;99.90;;;;;;5074164;28;20109;-68
2023/10/24 10:52:20;;;;;;;13.07;7.65;;;11.50;99.90;;;;;;5073880;28;20102;-68
2023/10/24 10:54:55;;;;;;;12.02;8.05;;;11.60;99.90;;;;;;5074046;28;20058;-69
2023/10/24 10:57:29;;;;;;;12.63;7.50;;;11.70;99.90;;;;;;5092207;28;20562;-69
2023/10/24 11:00:03;;;;;;;13.05;8.02;;;11.70;99.90;;;;;;5073600;28;20084;-69
2023/10/24 11:02:53;;;;;;;10.48;7.80;;;11.80;99.90;;;;;;5073945;28;20052;-69
2023/10/24 11:05:50;;;;;;;11.07;7.82;;;12.00;99.90;;;;;;5073908;28;20109;-69
2023/10/24 11:08:22;;;;;;;11.93;7.80;;;12.10;99.90;;;;;;5067980;28;20127;-67
2023/10/24 11:11:00;;;;;;;11.88;8.02;;;12.20;99.90;;;;;;5080860;28;20561;-67
2023/10/24 11:13:48;;;;;;;11.93;8.45;;;12.20;99.90;;;;;;5080067;28;20044;-68
2023/10/24 11:16:16;;;;;;;12.32;7.97;;;12.20;99.90;;;;;;5073252;28;20048;-69
2023/10/24 11:18:45;;;;;;;11.32;7.82;;;12.20;99.90;;;;;;5080851;28;20063;-68
2023/10/24 11:21:12;;;;;;;12.82;7.47;;;12.20;99.90;;;;;;5079901;28;20051;-69
2023/10/24 11:23:42;;;;;;;13.00;8.25;;;12.20;99.90;;;;;;5098686;28;20097;-69
2023/10/24 11:26:09;;;;;;;12.75;8.43;;;12.20;99.90;;;;;;5080100;28;20135;-68
2023/10/24 11:28:36;;;;;;;11.02;8.05;;;12.20;99.90;;;;;;5080762;28;20094;-69
2023/10/24 11:31:19;;;;;;;11.60;7.28;;;12.20;99.90;;;;;;5080624;28;20109;-69
2023/10/24 11:33:48;;;;;;;12.10;7.93;;;12.20;99.90;;;;;;5078699;28;20117;-68
2023/10/24 11:36:15;;;;;;;13.77;8.43;;;12.20;99.90;;;;;;5080238;28;20072;-70
2023/10/24 11:38:42;;;;;;;9.93;7.63;;;12.30;99.90;;;;;;5080471;28;20048;-69
2023/10/24 11:41:08;;;;;;;10.18;7.35;;;12.30;99.90;;;;;;5080037;28;20055;-69
2023/10/24 11:43:35;;;;;;;11.63;7.40;;;12.30;99.90;;;;;;5080417;28;20442;-68
2023/10/24 11:46:02;;;;;;;12.15;8.32;;;12.30;99.90;;;;;;5080648;28;20067;-68
2023/10/24 11:48:29;;;;;;;11.68;8.20;;;12.30;99.90;;;;;;5097908;28;20039;-68
2023/10/24 11:51:02;;;;;;;10.48;7.63;;;12.40;99.90;;;;;;5080269;28;20131;-68
2023/10/24 11:53:30;;;;;;;12.23;7.85;;;12.50;99.90;;;;;;5080078;28;20047;-70
2023/10/24 11:55:57;;;;;;;11.10;8.27;;;12.60;99.90;;;;;;5098147;28;20093;-68
2023/10/24 11:58:31;;;;;;;11.07;8.00;;;12.60;99.90;;;;;;5098177;28;20052;-68
2023/10/24 12:01:01;;;;;;;10.68;7.53;;;12.60;99.90;;;;;;5098121;28;20044;-68
2023/10/24 12:03:41;;;;;;;11.98;7.85;;;12.60;99.90;;;;;;5097793;28;20206;-68
2023/10/24 12:06:09;;;;;;;10.63;7.40;;;12.50;99.90;;;;;;5098189;28;20044;-68
2023/10/24 12:08:37;;;;;;;11.38;7.68;;;12.50;99.90;;;;;;5079432;28;20052;-68
2023/10/24 12:11:03;;;;;;;10.25;7.57;;;12.50;99.90;;;;;;5098279;28;20488;-69
2023/10/24 12:13:31;;;;;;;12.50;8.60;;;12.40;99.90;;;;;;5080170;28;20060;-69
2023/10/24 12:15:59;;;;;;;10.80;8.00;;;12.50;99.90;;;;;;5097755;28;20044;-69
2023/10/24 12:18:26;;;;;;;9.65;7.63;;;12.50;99.90;;;;;;5080131;28;20549;-68
2023/10/24 12:20:53;;;;;;;10.07;8.10;;;12.40;99.90;;;;;;5076558;28;20117;-68
2023/10/24 12:23:23;;;;;;;11.63;8.45;;;12.40;99.90;;;;;;5072039;28;20059;-69
2023/10/24 12:25:50;;;;;;;11.38;8.32;;;12.40;99.90;;;;;;5094924;28;20514;-68
2023/10/24 12:28:17;;;;;;;10.50;7.93;;;12.40;99.90;;;;;;5076762;28;20048;-68
2023/10/24 12:30:44;;;;;;;10.77;8.05;;;12.40;99.90;;;;;;5076276;28;20056;-68
2023/10/24 12:33:12;;;;;;;10.18;7.35;;;12.30;99.90;;;;;;5076829;28;20048;-68
2023/10/24 12:35:39;;;;;;;11.70;7.80;;;12.30;99.90;;;;;;5076380;28;20496;-68
2023/10/24 12:38:06;;;;;;;14.80;8.30;;;12.30;99.90;;;;;;5076226;28;20502;-68
2023/10/24 12:40:34;;;;;;;9.75;7.38;;;12.30;99.90;;;;;;5076563;28;20044;-68